Time;durP1;ratioP1;P1;durP2;ratioP2;P2;SDS_P1;SDS_P2;PMS_P1;PMS_P2;Temp;Humidity;BMP_temperature;BMP_pressure;BME280_temperature;BME280_humidity;BME280_pressure;Samples;Min_cycle;Max_cycle;Signal;HPM_P1;HPM_P2
2021/08/02 00:00:52;;;;;;;4.90;3.83;;;14.80;99.90;;;;;;4988558;28;20290;-67
2021/08/02 00:03:26;;;;;;;4.68;4.28;;;14.80;99.90;;;;;;4989089;28;20235;-67
2021/08/02 00:05:58;;;;;;;4.45;4.00;;;14.80;99.90;;;;;;4987424;28;20217;-67
2021/08/02 00:08:29;;;;;;;3.90;3.60;;;14.80;99.90;;;;;;4986520;28;20218;-68
2021/08/02 00:11:00;;;;;;;3.58;3.28;;;14.90;99.90;;;;;;4986762;28;20208;-67
2021/08/02 00:13:30;;;;;;;4.88;3.80;;;14.90;99.90;;;;;;4989117;28;20648;-68
2021/08/02 00:16:01;;;;;;;4.13;3.80;;;14.90;99.90;;;;;;4989293;28;20291;-67
2021/08/02 00:18:30;;;;;;;3.92;3.70;;;14.80;99.90;;;;;;4988761;28;20217;-67
2021/08/02 00:21:03;;;;;;;3.92;3.63;;;14.80;99.90;;;;;;4987861;28;20208;-68
2021/08/02 00:23:29;;;;;;;4.13;3.83;;;14.70;99.90;;;;;;4989172;28;20228;-68
2021/08/02 00:26:04;;;;;;;4.07;3.78;;;14.60;99.90;;;;;;4986755;28;20303;-68
2021/08/02 00:28:32;;;;;;;3.97;3.53;;;14.60;99.90;;;;;;4989078;28;20207;-68
2021/08/02 00:31:04;;;;;;;6.32;3.70;;;14.70;99.90;;;;;;4987338;28;20219;-68
2021/08/02 00:33:31;;;;;;;4.47;4.13;;;14.70;99.90;;;;;;4988043;28;20302;-67
2021/08/02 00:36:05;;;;;;;4.50;4.10;;;14.70;99.90;;;;;;4986696;28;20287;-68
2021/08/02 00:38:39;;;;;;;4.45;4.03;;;14.70;99.90;;;;;;4988404;28;20209;-68
2021/08/02 00:41:20;;;;;;;6.05;3.60;;;14.60;99.90;;;;;;4987969;28;20668;-68
2021/08/02 00:44:37;;;;;;;4.70;4.30;;;14.60;99.90;;;;;;4988445;28;20235;-68
2021/08/02 00:47:10;;;;;;;4.70;4.40;;;14.50;99.90;;;;;;4987365;28;20212;-67
2021/08/02 00:49:39;;;;;;;3.85;3.50;;;14.60;99.90;;;;;;4988098;28;20592;-67
2021/08/02 00:52:10;;;;;;;4.85;4.18;;;14.70;99.90;;;;;;4988554;28;20233;-68
2021/08/02 00:54:41;;;;;;;4.88;3.83;;;14.70;99.90;;;;;;4986675;28;20216;-68
2021/08/02 00:57:11;;;;;;;5.07;4.25;;;14.60;99.90;;;;;;4987374;28;20583;-68
2021/08/02 00:59:41;;;;;;;6.13;4.60;;;14.50;99.90;;;;;;4987781;28;20924;-68
2021/08/02 01:02:09;;;;;;;4.68;4.28;;;14.40;99.90;;;;;;4989454;28;20303;-68
2021/08/02 01:04:38;;;;;;;4.25;3.95;;;14.40;99.90;;;;;;4986180;28;20318;-68
2021/08/02 01:07:09;;;;;;;4.65;4.35;;;14.40;99.90;;;;;;4988025;28;21026;-68
2021/08/02 01:09:40;;;;;;;4.43;4.05;;;14.40;99.90;;;;;;4986374;28;20204;-68
2021/08/02 01:12:13;;;;;;;4.35;3.92;;;14.40;99.90;;;;;;4990086;28;20199;-68
2021/08/02 01:14:40;;;;;;;10.23;4.50;;;14.50;99.90;;;;;;4986490;28;20661;-68
2021/08/02 01:17:11;;;;;;;5.38;4.68;;;14.50;99.90;;;;;;4987437;28;20299;-68
2021/08/02 01:19:39;;;;;;;6.93;5.18;;;14.40;99.90;;;;;;4987447;28;20207;-68
2021/08/02 01:22:16;;;;;;;4.90;4.40;;;14.40;99.90;;;;;;4987964;28;20238;-68
2021/08/02 01:24:49;;;;;;;4.85;4.50;;;14.40;99.90;;;;;;4986253;28;20231;-68
2021/08/02 01:27:45;;;;;;;6.70;3.88;;;14.30;99.90;;;;;;4988126;28;20218;-68
2021/08/02 01:30:25;;;;;;;6.18;5.57;;;14.30;99.90;;;;;;4988345;28;20204;-68
2021/08/02 01:33:00;;;;;;;7.40;4.43;;;14.40;99.90;;;;;;4985646;28;20642;-68
2021/08/02 01:35:29;;;;;;;4.97;4.07;;;14.50;99.90;;;;;;4986454;28;20330;-68
2021/08/02 01:37:58;;;;;;;4.43;4.13;;;14.40;99.90;;;;;;4985363;28;20212;-68
2021/08/02 01:40:28;;;;;;;6.57;4.60;;;14.50;99.90;;;;;;4988067;28;20199;-69
2021/08/02 01:42:57;;;;;;;6.07;5.13;;;14.40;99.90;;;;;;4988654;28;20215;-68
2021/08/02 01:45:24;;;;;;;4.68;4.25;;;14.40;99.90;;;;;;4985316;28;20210;-67
2021/08/02 01:48:00;;;;;;;4.97;4.03;;;14.50;99.90;;;;;;4987021;28;20546;-68
2021/08/02 01:50:50;;;;;;;5.30;4.20;;;14.50;99.90;;;;;;4987101;28;20203;-68
2021/08/02 01:53:24;;;;;;;4.40;4.10;;;14.50;99.90;;;;;;4988037;28;20230;-68
2021/08/02 01:55:59;;;;;;;4.45;4.05;;;14.50;99.90;;;;;;4986035;28;20238;-68
2021/08/02 01:58:31;;;;;;;4.60;4.30;;;14.50;99.90;;;;;;4987870;28;20757;-68
2021/08/02 02:00:59;;;;;;;5.13;4.72;;;14.70;99.90;;;;;;4987845;28;20295;-68
2021/08/02 02:03:30;;;;;;;4.38;4.07;;;14.70;99.90;;;;;;4986277;28;20224;-68
2021/08/02 02:06:02;;;;;;;4.68;3.60;;;14.70;99.90;;;;;;4987102;28;20298;-68
2021/08/02 02:08:37;;;;;;;5.90;4.13;;;14.70;99.90;;;;;;4986462;28;20893;-68
2021/08/02 02:11:11;;;;;;;4.72;4.25;;;14.70;99.90;;;;;;4985836;28;20207;-68
2021/08/02 02:13:41;;;;;;;7.38;5.70;;;14.70;99.90;;;;;;4986489;28;20211;-68
2021/08/02 02:16:09;;;;;;;5.50;5.00;;;14.50;99.90;;;;;;4985899;28;20239;-68
2021/08/02 02:18:40;;;;;;;4.68;4.28;;;14.70;99.90;;;;;;4985859;28;20210;-68
2021/08/02 02:21:09;;;;;;;5.20;4.70;;;14.60;99.90;;;;;;4986589;28;20208;-68
2021/08/02 02:23:39;;;;;;;5.00;4.32;;;14.70;99.90;;;;;;4987089;28;21650;-67
2021/08/02 02:26:09;;;;;;;4.20;3.90;;;14.80;99.90;;;;;;4987789;28;20208;-68
2021/08/02 02:28:36;;;;;;;5.28;4.78;;;14.90;99.90;;;;;;4987946;28;20204;-67
2021/08/02 02:31:04;;;;;;;5.40;4.57;;;15.00;99.90;;;;;;4985619;28;20299;-68
2021/08/02 02:33:33;;;;;;;5.35;4.75;;;15.00;99.90;;;;;;4986770;28;20303;-68
2021/08/02 02:36:04;;;;;;;5.07;4.50;;;15.00;99.90;;;;;;4986108;28;20203;-68
2021/08/02 02:38:33;;;;;;;7.75;4.25;;;15.00;99.90;;;;;;4987539;28;20204;-67
2021/08/02 02:41:02;;;;;;;5.35;4.85;;;15.00;99.90;;;;;;4987803;28;20250;-68
2021/08/02 02:43:30;;;;;;;6.53;4.53;;;15.00;99.90;;;;;;4987791;28;20274;-68
2021/08/02 02:45:57;;;;;;;4.90;4.40;;;14.90;99.90;;;;;;4985701;28;20210;-68
2021/08/02 02:48:27;;;;;;;8.60;4.35;;;15.00;99.90;;;;;;4989295;28;20680;-68
2021/08/02 02:50:56;;;;;;;5.40;4.35;;;14.80;99.90;;;;;;4990999;28;20242;-68
2021/08/02 02:53:23;;;;;;;4.40;4.00;;;14.80;99.90;;;;;;4990076;28;20216;-68
2021/08/02 02:55:54;;;;;;;4.65;4.28;;;14.80;99.90;;;;;;4989862;28;20212;-67
2021/08/02 02:58:23;;;;;;;5.15;4.65;;;14.80;99.90;;;;;;4988025;28;20220;-68
2021/08/02 03:00:52;;;;;;;4.90;4.50;;;14.90;99.90;;;;;;4989366;28;20208;-68
2021/08/02 03:03:24;;;;;;;4.60;4.20;;;14.80;99.90;;;;;;4991204;28;20579;-68
2021/08/02 03:05:54;;;;;;;9.73;4.38;;;14.80;99.90;;;;;;4989585;28;20208;-68
2021/08/02 03:08:23;;;;;;;4.10;3.70;;;14.70;99.90;;;;;;4991324;28;20204;-67
2021/08/02 03:10:52;;;;;;;4.70;4.30;;;14.70;99.90;;;;;;4987791;28;20614;-67
2021/08/02 03:13:20;;;;;;;4.53;4.13;;;14.70;99.90;;;;;;4990141;28;20298;-68
2021/08/02 03:15:49;;;;;;;4.40;4.10;;;14.70;99.90;;;;;;4991236;28;20216;-68
2021/08/02 03:18:16;;;;;;;4.53;4.10;;;14.60;99.90;;;;;;4990001;28;20591;-68
2021/08/02 03:20:43;;;;;;;6.53;3.83;;;14.70;99.90;;;;;;4990837;28;20282;-68
2021/08/02 03:23:19;;;;;;;4.72;4.25;;;14.60;99.90;;;;;;4988383;28;20204;-68
2021/08/02 03:25:52;;;;;;;5.40;4.53;;;14.50;99.90;;;;;;4988781;28;20972;-68
2021/08/02 03:28:40;;;;;;;4.55;4.25;;;14.50;99.90;;;;;;4990332;28;20211;-67
2021/08/02 03:31:12;;;;;;;5.75;4.43;;;14.50;99.90;;;;;;4987816;28;20247;-68
2021/08/02 03:33:42;;;;;;;4.35;3.95;;;14.50;99.90;;;;;;4990431;28;20307;-68
2021/08/02 03:36:12;;;;;;;5.30;4.05;;;14.40;99.90;;;;;;4988517;28;20211;-68
2021/08/02 03:38:40;;;;;;;4.85;4.45;;;14.40;99.90;;;;;;4990015;28;20204;-73
2021/08/02 03:41:08;;;;;;;4.40;4.10;;;14.30;99.90;;;;;;4987198;28;20204;-68
2021/08/02 03:43:40;;;;;;;4.88;4.47;;;14.40;99.90;;;;;;4989700;28;20222;-67
2021/08/02 03:46:13;;;;;;;5.10;4.55;;;14.50;99.90;;;;;;4987654;28;20200;-68
2021/08/02 03:48:40;;;;;;;4.75;4.43;;;14.40;99.90;;;;;;4988541;28;20212;-68
2021/08/02 03:51:07;;;;;;;5.20;4.70;;;14.40;99.90;;;;;;4987971;28;20732;-68
2021/08/02 03:53:45;;;;;;;5.13;4.63;;;14.50;99.90;;;;;;4989465;28;20211;-68
2021/08/02 03:56:15;;;;;;;4.72;4.32;;;14.50;99.90;;;;;;4988556;28;20291;-67
2021/08/02 03:58:45;;;;;;;4.32;4.03;;;14.60;99.90;;;;;;4988700;28;20205;-68
2021/08/02 04:01:13;;;;;;;4.82;4.43;;;14.50;99.90;;;;;;4988387;28;20239;-68
2021/08/02 04:03:41;;;;;;;4.53;4.22;;;14.60;99.90;;;;;;4988416;28;20210;-68
2021/08/02 04:06:10;;;;;;;5.15;4.70;;;14.60;99.90;;;;;;4988469;28;20674;-67
2021/08/02 04:08:36;;;;;;;4.35;3.95;;;14.70;99.90;;;;;;4990933;28;20210;-67
2021/08/02 04:11:04;;;;;;;4.88;4.35;;;14.70;99.90;;;;;;4988879;28;20290;-68
2021/08/02 04:13:30;;;;;;;5.95;4.47;;;14.60;99.90;;;;;;4988495;28;20237;-68
2021/08/02 04:15:57;;;;;;;4.88;4.47;;;14.50;99.90;;;;;;4989429;28;20290;-68
2021/08/02 04:18:26;;;;;;;5.03;4.55;;;14.50;99.90;;;;;;4990276;28;20208;-68
2021/08/02 04:20:54;;;;;;;5.15;4.75;;;14.50;99.90;;;;;;4988816;28;20692;-68
2021/08/02 04:23:21;;;;;;;5.80;4.80;;;14.50;99.90;;;;;;4988821;28;20628;-68
2021/08/02 04:25:48;;;;;;;4.65;4.25;;;14.50;99.90;;;;;;4989002;28;20223;-68
2021/08/02 04:28:17;;;;;;;5.75;4.75;;;14.60;99.90;;;;;;4989105;28;20302;-68
2021/08/02 04:30:46;;;;;;;4.85;4.45;;;14.80;99.90;;;;;;4987434;28;20208;-68
2021/08/02 04:33:13;;;;;;;4.97;4.57;;;14.80;99.90;;;;;;4987263;28;20331;-68
2021/08/02 04:35:42;;;;;;;4.40;4.00;;;14.70;99.90;;;;;;4989285;28;20291;-67
2021/08/02 04:38:12;;;;;;;4.50;4.20;;;14.90;99.90;;;;;;4988215;28;20292;-68
2021/08/02 04:40:39;;;;;;;5.15;4.22;;;15.00;99.90;;;;;;4988853;28;20566;-68
2021/08/02 04:43:06;;;;;;;4.63;4.22;;;14.80;99.90;;;;;;4987896;28;20792;-68
2021/08/02 04:45:33;;;;;;;4.07;3.80;;;14.80;99.90;;;;;;4985389;28;20337;-68
2021/08/02 04:48:00;;;;;;;4.05;3.50;;;14.90;99.90;;;;;;4987656;28;20290;-68
2021/08/02 04:50:27;;;;;;;3.85;3.58;;;14.90;99.90;;;;;;4989283;28;20824;-68
2021/08/02 04:52:56;;;;;;;7.35;4.38;;;14.90;99.90;;;;;;4989165;28;20967;-68
2021/08/02 04:55:23;;;;;;;6.53;4.22;;;15.00;99.90;;;;;;4988241;28;20230;-68
2021/08/02 04:57:50;;;;;;;4.78;3.50;;;14.90;99.90;;;;;;4988081;28;20218;-68
2021/08/02 05:00:17;;;;;;;4.40;4.00;;;14.90;99.90;;;;;;4986604;28;20227;-68
2021/08/02 05:02:45;;;;;;;4.38;3.88;;;15.00;99.90;;;;;;4988335;28;20218;-67
2021/08/02 05:05:14;;;;;;;4.05;3.80;;;15.10;99.90;;;;;;4987125;28;20322;-67
2021/08/02 05:07:41;;;;;;;4.10;3.80;;;15.20;99.90;;;;;;4986871;28;20624;-68
2021/08/02 05:10:10;;;;;;;4.30;3.90;;;15.20;99.90;;;;;;4985950;28;20214;-68
2021/08/02 05:12:37;;;;;;;6.30;4.28;;;15.40;99.90;;;;;;4987836;28;20203;-68
2021/08/02 05:15:08;;;;;;;4.47;4.18;;;15.30;99.90;;;;;;4989042;28;20208;-69
2021/08/02 05:17:35;;;;;;;4.88;4.43;;;15.30;99.90;;;;;;4987451;28;20210;-68
2021/08/02 05:20:01;;;;;;;5.15;4.30;;;15.30;99.90;;;;;;4986508;28;20298;-68
2021/08/02 05:22:36;;;;;;;7.45;4.53;;;15.30;99.90;;;;;;4987820;28;20299;-68
2021/08/02 05:25:03;;;;;;;4.28;3.90;;;15.30;99.90;;;;;;4987302;28;20330;-68
2021/08/02 05:27:31;;;;;;;5.22;4.32;;;15.50;99.90;;;;;;4986675;28;20225;-68
2021/08/02 05:29:58;;;;;;;5.13;4.72;;;15.70;99.90;;;;;;4987360;28;20960;-68
2021/08/02 05:32:25;;;;;;;4.10;3.80;;;15.90;99.90;;;;;;4987062;28;20200;-69
2021/08/02 05:34:52;;;;;;;10.13;4.35;;;15.90;99.90;;;;;;4986528;28;20526;-68
2021/08/02 05:37:22;;;;;;;3.70;3.40;;;15.90;99.90;;;;;;4987085;28;20239;-68
2021/08/02 05:39:49;;;;;;;6.15;4.13;;;15.90;99.90;;;;;;4991015;28;20216;-68
2021/08/02 05:42:16;;;;;;;4.22;3.83;;;15.90;99.90;;;;;;4987454;28;20212;-68
2021/08/02 05:44:45;;;;;;;4.93;3.60;;;16.00;99.90;;;;;;4991772;28;20232;-68
2021/08/02 05:47:14;;;;;;;4.93;3.55;;;16.00;99.90;;;;;;4989906;28;20239;-68
2021/08/02 05:49:44;;;;;;;4.40;4.05;;;15.90;99.90;;;;;;4993244;28;20208;-68
2021/08/02 05:52:10;;;;;;;4.28;3.97;;;15.80;99.90;;;;;;4993247;28;20697;-68
2021/08/02 05:54:37;;;;;;;3.65;3.35;;;15.80;99.90;;;;;;4987548;28;20218;-68
2021/08/02 05:57:05;;;;;;;4.50;3.78;;;15.70;99.90;;;;;;4987246;28;20207;-68
2021/08/02 05:59:32;;;;;;;4.63;4.30;;;15.80;99.90;;;;;;4987576;28;20211;-69
2021/08/02 06:02:01;;;;;;;4.85;4.45;;;15.90;99.90;;;;;;4987766;28;20295;-68
2021/08/02 06:04:31;;;;;;;4.00;3.72;;;15.90;99.90;;;;;;4985547;28;20338;-68
2021/08/02 06:06:59;;;;;;;6.40;4.15;;;15.80;99.90;;;;;;4985818;28;20238;-69
2021/08/02 06:09:26;;;;;;;4.95;3.58;;;16.00;99.90;;;;;;4987514;28;20556;-69
2021/08/02 06:11:55;;;;;;;7.50;4.00;;;15.90;99.90;;;;;;4987097;28;20207;-69
2021/08/02 06:14:24;;;;;;;3.92;3.55;;;15.90;99.90;;;;;;4990491;28;20258;-69
2021/08/02 06:16:52;;;;;;;9.35;4.65;;;16.00;99.90;;;;;;4987757;28;20735;-69
2021/08/02 06:19:21;;;;;;;4.53;3.88;;;16.20;99.90;;;;;;4986868;28;20286;-69
2021/08/02 06:21:48;;;;;;;4.03;3.60;;;16.20;99.90;;;;;;4986999;28;20307;-69
2021/08/02 06:24:17;;;;;;;3.90;3.55;;;16.30;99.90;;;;;;4989450;28;20280;-69
2021/08/02 06:26:45;;;;;;;4.88;3.60;;;16.30;99.90;;;;;;4989730;28;20216;-69
2021/08/02 06:29:12;;;;;;;4.68;4.20;;;16.30;99.90;;;;;;4990478;28;20218;-69
2021/08/02 06:31:39;;;;;;;4.18;3.88;;;16.50;99.90;;;;;;4993886;28;20979;-69
2021/08/02 06:34:06;;;;;;;4.60;4.30;;;16.60;99.90;;;;;;4991409;28;20227;-69
2021/08/02 06:36:56;;;;;;;4.90;4.40;;;16.60;99.90;;;;;;4986943;28;20210;-69
2021/08/02 06:42:10;;;;;;;5.03;3.70;;;16.60;99.90;;;;;;4985071;28;20887;-69
2021/08/02 06:44:40;;;;;;;3.83;3.42;;;16.80;99.90;;;;;;4994605;28;20258;-68
2021/08/02 06:47:10;;;;;;;4.20;3.85;;;17.00;99.90;;;;;;4979040;28;20216;-68
2021/08/02 06:49:45;;;;;;;4.22;3.58;;;17.10;99.90;;;;;;4986529;28;20208;-68
2021/08/02 06:52:13;;;;;;;3.50;3.20;;;17.20;99.90;;;;;;4987607;28;20203;-68
2021/08/02 06:54:40;;;;;;;4.18;3.75;;;17.30;99.90;;;;;;4988608;28;20573;-69
2021/08/02 06:57:07;;;;;;;4.00;3.70;;;17.30;99.90;;;;;;4989103;28;20296;-68
2021/08/02 06:59:34;;;;;;;3.25;3.05;;;17.40;99.90;;;;;;4988920;28;20200;-68
2021/08/02 07:02:00;;;;;;;3.58;3.28;;;17.70;99.90;;;;;;4989933;28;20231;-68
2021/08/02 07:04:27;;;;;;;4.00;3.05;;;17.70;99.90;;;;;;4986106;28;20232;-68
2021/08/02 07:07:03;;;;;;;3.38;3.17;;;17.70;99.90;;;;;;4988718;28;20240;-68
2021/08/02 07:09:32;;;;;;;4.30;3.90;;;17.80;99.90;;;;;;4988918;28;20597;-68
2021/08/02 07:11:58;;;;;;;3.77;3.47;;;17.80;99.90;;;;;;4991699;28;21350;-68
2021/08/02 07:14:25;;;;;;;3.13;2.93;;;18.10;99.90;;;;;;4990941;28;21034;-68
2021/08/02 07:16:52;;;;;;;5.17;2.83;;;18.40;99.90;;;;;;4989900;28;21187;-69
2021/08/02 07:19:19;;;;;;;3.20;2.87;;;18.60;99.90;;;;;;4990633;28;21285;-68
2021/08/02 07:21:46;;;;;;;3.13;2.90;;;18.80;99.90;;;;;;4991470;28;21104;-68
2021/08/02 07:24:13;;;;;;;3.70;3.40;;;18.70;99.90;;;;;;4991801;28;20745;-68
2021/08/02 07:26:41;;;;;;;3.30;3.00;;;18.90;99.90;;;;;;4986774;28;20682;-69
2021/08/02 07:29:08;;;;;;;3.17;2.93;;;18.90;99.90;;;;;;4991596;28;21387;-68
2021/08/02 07:31:36;;;;;;;4.00;3.27;;;19.00;99.90;;;;;;4988665;28;20762;-69
2021/08/02 07:34:02;;;;;;;3.80;2.87;;;19.30;99.90;;;;;;4989422;28;20725;-68
2021/08/02 07:36:34;;;;;;;3.63;2.90;;;19.60;99.90;;;;;;4989185;28;21149;-69
2021/08/02 07:39:01;;;;;;;3.47;3.17;;;19.70;99.90;;;;;;4987910;28;20643;-69
2021/08/02 07:41:30;;;;;;;2.97;2.77;;;19.80;99.90;;;;;;4988180;28;20663;-69
2021/08/02 07:44:01;;;;;;;3.17;2.97;;;20.00;99.90;;;;;;4987733;28;20639;-68
2021/08/02 07:46:28;;;;;;;3.30;3.00;;;20.20;99.90;;;;;;4986495;28;20679;-68
2021/08/02 07:48:55;;;;;;;3.60;2.87;;;20.40;99.90;;;;;;4987832;28;21174;-68
2021/08/02 07:51:24;;;;;;;3.10;2.80;;;20.70;99.20;;;;;;4987344;28;21674;-69
2021/08/02 07:53:51;;;;;;;3.43;2.80;;;20.90;99.20;;;;;;4988084;28;20774;-68
2021/08/02 07:56:18;;;;;;;3.20;2.90;;;20.70;99.10;;;;;;4985832;28;20648;-68
2021/08/02 07:58:44;;;;;;;3.03;2.83;;;20.90;99.30;;;;;;4987905;28;20641;-69
2021/08/02 08:01:13;;;;;;;4.90;2.97;;;20.80;98.40;;;;;;4987903;28;20642;-68
2021/08/02 08:03:40;;;;;;;4.70;2.93;;;21.10;98.40;;;;;;4988441;28;20649;-69
2021/08/02 08:06:07;;;;;;;2.53;2.20;;;21.30;98.80;;;;;;4986066;28;20682;-69
2021/08/02 08:08:33;;;;;;;3.10;2.90;;;21.40;98.40;;;;;;4988926;28;20627;-69
2021/08/02 08:11:00;;;;;;;2.53;2.33;;;21.60;98.50;;;;;;4987206;28;20966;-70
2021/08/02 08:13:28;;;;;;;2.90;2.07;;;21.80;97.50;;;;;;4985604;28;20671;-69
2021/08/02 08:15:55;;;;;;;2.70;2.50;;;22.10;97.20;;;;;;4982446;28;20649;-69
2021/08/02 08:18:23;;;;;;;2.73;2.53;;;22.30;97.20;;;;;;4987878;28;20639;-69
2021/08/02 08:20:50;;;;;;;2.23;2.13;;;22.60;96.30;;;;;;4986219;28;20639;-69
2021/08/02 08:23:20;;;;;;;2.43;2.33;;;22.70;96.20;;;;;;4986048;28;20624;-69
2021/08/02 08:25:47;;;;;;;2.40;2.20;;;22.80;95.60;;;;;;4984913;28;20706;-69
2021/08/02 08:28:14;;;;;;;2.77;2.57;;;23.00;96.00;;;;;;4986989;28;20729;-69
2021/08/02 08:30:41;;;;;;;2.20;2.10;;;23.10;94.10;;;;;;4986170;28;20623;-68
2021/08/02 08:33:08;;;;;;;4.07;2.40;;;23.30;94.80;;;;;;4987763;28;20674;-69
2021/08/02 08:35:37;;;;;;;2.60;2.40;;;23.30;94.80;;;;;;4986911;28;20634;-68
2021/08/02 08:38:04;;;;;;;2.50;2.30;;;23.40;94.40;;;;;;4987182;28;20696;-69
2021/08/02 08:40:32;;;;;;;3.20;2.90;;;23.40;94.70;;;;;;4986567;28;20749;-69
2021/08/02 08:43:04;;;;;;;2.33;2.20;;;23.20;94.60;;;;;;4986045;28;20635;-69
2021/08/02 08:45:31;;;;;;;3.13;2.23;;;23.00;95.10;;;;;;4984819;28;20675;-69
2021/08/02 08:47:58;;;;;;;2.50;2.40;;;22.90;94.70;;;;;;4985740;28;20651;-69
2021/08/02 08:50:28;;;;;;;2.63;2.43;;;23.20;94.00;;;;;;4986653;28;20736;-69
2021/08/02 08:52:59;;;;;;;2.23;2.03;;;23.20;94.10;;;;;;4985764;28;20740;-69
2021/08/02 08:55:27;;;;;;;2.63;2.47;;;23.50;91.90;;;;;;4986269;28;21150;-68
2021/08/02 08:57:54;;;;;;;2.57;2.37;;;24.20;91.50;;;;;;4986386;28;20645;-69
2021/08/02 09:00:23;;;;;;;5.60;2.30;;;25.40;89.50;;;;;;4987121;28;20680;-69
2021/08/02 09:02:51;;;;;;;4.30;2.17;;;26.10;86.30;;;;;;4986222;28;20637;-69
2021/08/02 09:05:18;;;;;;;2.47;2.17;;;26.00;85.60;;;;;;4985372;28;20710;-70
2021/08/02 09:07:48;;;;;;;2.17;2.07;;;25.80;89.10;;;;;;4984676;28;20633;-69
2021/08/02 09:10:18;;;;;;;2.60;2.13;;;25.70;85.50;;;;;;4986584;28;20647;-70
2021/08/02 09:12:53;;;;;;;2.40;2.30;;;25.10;86.50;;;;;;4987015;28;20674;-69
2021/08/02 09:15:33;;;;;;;2.30;2.20;;;25.60;89.60;;;;;;4985765;28;20649;-69
2021/08/02 09:18:01;;;;;;;2.17;2.07;;;25.20;84.80;;;;;;4985779;28;20639;-69
2021/08/02 09:20:29;;;;;;;2.17;2.07;;;25.50;87.30;;;;;;4984182;28;20639;-69
2021/08/02 09:23:05;;;;;;;2.10;2.00;;;25.80;85.10;;;;;;4986069;28;20995;-69
2021/08/02 09:25:34;;;;;;;2.10;2.00;;;26.20;86.20;;;;;;4985343;28;20786;-70
2021/08/02 09:28:11;;;;;;;2.13;1.93;;;25.80;85.40;;;;;;4987004;28;20659;-69
2021/08/02 09:30:41;;;;;;;2.73;2.53;;;25.30;86.80;;;;;;4986261;28;20651;-69
2021/08/02 09:33:09;;;;;;;2.30;2.10;;;24.20;89.40;;;;;;4984894;28;20634;-69
2021/08/02 09:35:39;;;;;;;2.43;2.20;;;24.30;90.60;;;;;;4985166;28;21271;-69
2021/08/02 09:38:12;;;;;;;5.43;2.10;;;24.10;90.50;;;;;;4984677;28;20729;-70
2021/08/02 09:40:45;;;;;;;2.53;1.97;;;23.30;90.50;;;;;;4986496;28;20637;-69
2021/08/02 09:43:13;;;;;;;2.57;2.47;;;22.10;92.20;;;;;;4984769;28;21266;-70
2021/08/02 09:45:45;;;;;;;5.90;2.90;;;21.60;93.30;;;;;;4985512;28;20685;-70
2021/08/02 09:48:15;;;;;;;2.20;2.10;;;21.10;94.50;;;;;;4984001;28;20667;-69
2021/08/02 09:50:43;;;;;;;2.00;1.90;;;20.90;96.00;;;;;;4985553;28;20637;-69
2021/08/02 09:53:13;;;;;;;2.93;2.40;;;20.70;95.10;;;;;;4985555;28;21079;-69
2021/08/02 09:55:43;;;;;;;2.63;2.43;;;21.10;95.80;;;;;;4983622;28;20638;-69
2021/08/02 09:58:14;;;;;;;2.60;2.50;;;21.80;94.00;;;;;;4988414;28;20643;-69
2021/08/02 10:00:45;;;;;;;2.67;2.57;;;23.10;93.80;;;;;;4989941;28;20742;-69
2021/08/02 10:03:13;;;;;;;2.40;2.20;;;24.20;92.20;;;;;;4989301;28;20635;-69
2021/08/02 10:05:40;;;;;;;2.40;2.30;;;24.50;90.50;;;;;;4988587;28;21293;-69
2021/08/02 10:08:07;;;;;;;2.03;1.93;;;24.70;90.60;;;;;;4990438;28;21122;-69
2021/08/02 10:10:37;;;;;;;2.10;2.00;;;25.60;90.20;;;;;;4990075;28;21084;-69
2021/08/02 10:13:06;;;;;;;2.43;2.10;;;26.40;89.20;;;;;;4989062;28;20636;-69
2021/08/02 10:15:34;;;;;;;2.67;2.00;;;27.10;81.30;;;;;;4989424;28;20646;-69
2021/08/02 10:18:04;;;;;;;1.70;1.60;;;27.30;82.10;;;;;;4989923;28;21177;-69
2021/08/02 10:20:33;;;;;;;1.60;1.53;;;27.50;76.00;;;;;;4989767;28;20697;-70
2021/08/02 10:23:01;;;;;;;1.90;1.80;;;27.80;77.00;;;;;;4989386;28;20722;-69
2021/08/02 10:25:36;;;;;;;1.93;1.83;;;28.20;77.50;;;;;;4989606;28;20769;-69
2021/08/02 10:28:12;;;;;;;1.90;1.80;;;28.10;74.80;;;;;;4988589;28;20670;-70
2021/08/02 10:30:40;;;;;;;1.90;1.80;;;28.10;76.40;;;;;;4989716;28;20637;-69
2021/08/02 10:33:07;;;;;;;2.10;2.00;;;27.80;73.20;;;;;;4988855;28;20667;-69
2021/08/02 10:35:41;;;;;;;1.93;1.83;;;26.70;77.70;;;;;;4988315;28;21280;-69
2021/08/02 10:38:12;;;;;;;1.77;1.67;;;26.30;80.60;;;;;;4989719;28;21148;-69
2021/08/02 10:40:50;;;;;;;1.80;1.70;;;26.50;77.60;;;;;;4989835;28;20666;-69
2021/08/02 10:43:35;;;;;;;1.93;1.83;;;26.90;81.00;;;;;;4987020;28;20734;-69
2021/08/02 10:46:17;;;;;;;2.17;2.07;;;27.30;76.40;;;;;;4987137;28;20763;-69
2021/08/02 10:48:45;;;;;;;3.73;2.00;;;27.60;74.80;;;;;;4989219;28;20648;-70
2021/08/02 10:51:13;;;;;;;1.80;1.80;;;27.40;76.30;;;;;;4988606;28;20647;-69
2021/08/02 10:53:41;;;;;;;1.93;1.83;;;26.90;76.90;;;;;;4987450;28;20636;-69
2021/08/02 10:56:08;;;;;;;1.83;1.73;;;26.20;77.60;;;;;;4987549;28;20638;-70
2021/08/02 10:58:38;;;;;;;2.20;2.10;;;25.60;82.20;;;;;;4989792;28;20627;-69
2021/08/02 11:01:07;;;;;;;1.93;1.83;;;25.30;83.50;;;;;;4987782;28;20634;-70
2021/08/02 11:03:36;;;;;;;2.63;2.43;;;25.40;84.50;;;;;;4988401;28;20635;-69
2021/08/02 11:06:08;;;;;;;1.47;1.47;;;25.60;84.10;;;;;;4987903;28;20673;-69
2021/08/02 11:08:42;;;;;;;2.20;2.10;;;25.00;83.90;;;;;;4988067;28;20630;-69
2021/08/02 11:11:10;;;;;;;2.20;2.00;;;24.40;85.70;;;;;;4989638;28;20757;-69
2021/08/02 11:13:39;;;;;;;1.67;1.57;;;24.20;88.70;;;;;;4988567;28;20607;-68
2021/08/02 11:16:11;;;;;;;2.20;2.10;;;24.10;87.40;;;;;;4988560;28;20729;-69
2021/08/02 11:18:42;;;;;;;1.93;1.83;;;23.90;86.70;;;;;;4987330;28;20623;-68
2021/08/02 11:21:19;;;;;;;2.03;1.90;;;23.60;88.60;;;;;;4988215;28;21183;-69
2021/08/02 11:23:46;;;;;;;1.97;1.87;;;23.40;90.20;;;;;;4988556;28;20640;-69
2021/08/02 11:26:13;;;;;;;2.50;2.00;;;22.90;90.20;;;;;;4987885;28;21111;-68
2021/08/02 11:28:44;;;;;;;2.20;2.00;;;22.50;90.60;;;;;;4988888;28;20662;-69
2021/08/02 11:31:11;;;;;;;2.57;2.37;;;21.90;90.60;;;;;;4989405;28;21227;-68
2021/08/02 11:33:41;;;;;;;1.87;1.77;;;21.50;90.20;;;;;;4986596;28;21060;-69
2021/08/02 11:36:23;;;;;;;1.67;1.57;;;20.90;90.00;;;;;;4985910;28;21526;-68
2021/08/02 11:38:51;;;;;;;1.63;1.53;;;20.50;92.10;;;;;;4988037;28;20639;-69
2021/08/02 11:41:28;;;;;;;1.90;1.70;;;20.30;93.00;;;;;;4988302;28;20966;-69
2021/08/02 11:43:59;;;;;;;1.60;1.50;;;20.10;92.80;;;;;;4986844;28;20630;-68
2021/08/02 11:46:29;;;;;;;2.07;1.97;;;20.20;94.40;;;;;;4986209;28;21145;-68
2021/08/02 11:48:57;;;;;;;1.70;1.60;;;20.10;92.60;;;;;;4987737;28;20654;-68
2021/08/02 11:51:29;;;;;;;2.07;1.87;;;19.90;95.20;;;;;;4987497;28;20673;-68
2021/08/02 11:53:58;;;;;;;1.80;1.70;;;19.80;96.90;;;;;;4986885;28;20638;-69
2021/08/02 11:56:32;;;;;;;1.60;1.50;;;19.70;97.10;;;;;;4988689;28;20623;-68
2021/08/02 11:59:00;;;;;;;2.33;1.60;;;19.90;97.60;;;;;;4987200;28;21522;-69
2021/08/02 12:01:27;;;;;;;1.97;1.43;;;20.10;96.50;;;;;;4987909;28;21055;-69
2021/08/02 12:03:58;;;;;;;1.60;1.50;;;20.50;96.40;;;;;;4987340;28;20637;-69
2021/08/02 12:06:25;;;;;;;1.67;1.57;;;21.00;95.40;;;;;;4986873;28;20682;-69
2021/08/02 12:09:04;;;;;;;1.73;1.57;;;21.20;94.20;;;;;;4986894;28;20641;-69
2021/08/02 12:11:41;;;;;;;2.30;2.20;;;21.60;94.70;;;;;;4985522;28;20629;-68
2021/08/02 12:14:11;;;;;;;2.50;2.30;;;22.20;94.20;;;;;;4987416;28;20631;-68
2021/08/02 12:16:38;;;;;;;2.13;2.03;;;22.10;93.80;;;;;;4985646;28;20647;-69
2021/08/02 12:19:08;;;;;;;2.00;1.90;;;21.90;92.80;;;;;;4986276;28;21005;-69
2021/08/02 12:21:36;;;;;;;2.00;1.80;;;22.10;94.60;;;;;;4987445;28;20639;-69
2021/08/02 12:24:08;;;;;;;2.10;2.00;;;22.20;93.60;;;;;;4986859;28;20634;-69
2021/08/02 12:26:38;;;;;;;3.23;1.90;;;22.40;93.90;;;;;;4986251;28;20723;-69
2021/08/02 12:29:08;;;;;;;2.93;2.63;;;22.50;92.70;;;;;;4986350;28;20631;-69
2021/08/02 12:31:40;;;;;;;2.33;2.23;;;22.60;92.50;;;;;;4986726;28;20741;-69
2021/08/02 12:34:07;;;;;;;4.90;1.50;;;22.60;93.20;;;;;;4985470;28;20720;-69
2021/08/02 12:36:38;;;;;;;2.00;1.90;;;22.50;92.60;;;;;;4986169;28;20638;-69
2021/08/02 12:39:05;;;;;;;2.77;1.90;;;22.40;93.50;;;;;;4984406;28;20722;-69
2021/08/02 12:41:38;;;;;;;2.30;1.50;;;22.30;92.90;;;;;;4986395;28;20741;-69
2021/08/02 12:44:05;;;;;;;2.17;1.93;;;22.30;91.50;;;;;;4985311;28;20642;-69
2021/08/02 12:46:32;;;;;;;1.73;1.63;;;22.40;91.20;;;;;;4985551;28;20681;-69
2021/08/02 12:49:00;;;;;;;1.80;1.70;;;22.60;90.90;;;;;;4985302;28;20633;-66
2021/08/02 12:51:27;;;;;;;1.60;1.50;;;23.00;90.70;;;;;;4985971;28;20638;-69
2021/08/02 12:53:54;;;;;;;1.30;1.20;;;23.20;89.00;;;;;;4985725;28;20631;-69
2021/08/02 12:56:24;;;;;;;1.20;1.20;;;23.70;90.10;;;;;;4982810;28;20721;-69
2021/08/02 12:58:51;;;;;;;2.90;1.63;;;24.00;87.30;;;;;;4986760;28;20643;-69
2021/08/02 13:01:19;;;;;;;1.50;1.40;;;24.20;86.50;;;;;;4975163;28;20734;-69
2021/08/02 13:03:46;;;;;;;1.30;1.20;;;24.10;83.70;;;;;;4983559;28;20623;-68